sensor_id;sensor_type;location;lat;lon;timestamp;pressure;altitude;pressure_sealevel;temperature;humidity
78741;BME280;68062;48.726;9.370;2023-12-20T00:01:39;98795.75;;;4.28;100.00
78741;BME280;68062;48.726;9.370;2023-12-20T00:04:08;98796.50;;;4.24;100.00
78741;BME280;68062;48.726;9.370;2023-12-20T00:06:36;98797.06;;;4.47;100.00
78741;BME280;68062;48.726;9.370;2023-12-20T00:09:05;98788.22;;;4.33;100.00
78741;BME280;68062;48.726;9.370;2023-12-20T00:11:33;98776.41;;;4.35;100.00
78741;BME280;68062;48.726;9.370;2023-12-20T00:14:01;98764.50;;;4.34;100.00
78741;BME280;68062;48.726;9.370;2023-12-20T00:16:29;98767.13;;;4.38;100.00
78741;BME280;68062;48.726;9.370;2023-12-20T00:18:58;98764.69;;;4.43;100.00
78741;BME280;68062;48.726;9.370;2023-12-20T00:21:28;98769.94;;;4.51;100.00
78741;BME280;68062;48.726;9.370;2023-12-20T00:23:56;98764.78;;;4.48;100.00
78741;BME280;68062;48.726;9.370;2023-12-20T00:26:24;98755.75;;;4.61;100.00
78741;BME280;68062;48.726;9.370;2023-12-20T00:28:52;98756.50;;;4.56;100.00
78741;BME280;68062;48.726;9.370;2023-12-20T00:31:20;98740.53;;;4.64;100.00
78741;BME280;68062;48.726;9.370;2023-12-20T00:33:49;98717.50;;;4.59;100.00
78741;BME280;68062;48.726;9.370;2023-12-20T00:36:17;98738.00;;;4.65;100.00
78741;BME280;68062;48.726;9.370;2023-12-20T00:38:46;98733.22;;;4.79;100.00
78741;BME280;68062;48.726;9.370;2023-12-20T00:41:14;98726.41;;;4.78;100.00
78741;BME280;68062;48.726;9.370;2023-12-20T00:43:42;98732.34;;;4.79;100.00
78741;BME280;68062;48.726;9.370;2023-12-20T00:46:11;98735.75;;;4.79;100.00
78741;BME280;68062;48.726;9.370;2023-12-20T00:48:38;98725.19;;;5.04;100.00
78741;BME280;68062;48.726;9.370;2023-12-20T00:51:08;98726.91;;;5.05;100.00
78741;BME280;68062;48.726;9.370;2023-12-20T00:53:37;98737.34;;;5.17;100.00
78741;BME280;68062;48.726;9.370;2023-12-20T00:56:06;98731.84;;;5.40;100.00
78741;BME280;68062;48.726;9.370;2023-12-20T00:58:35;98722.31;;;5.31;100.00
78741;BME280;68062;48.726;9.370;2023-12-20T01:01:03;98723.94;;;5.27;100.00
78741;BME280;68062;48.726;9.370;2023-12-20T01:03:31;98720.81;;;5.42;100.00
78741;BME280;68062;48.726;9.370;2023-12-20T01:05:59;98721.88;;;5.54;100.00
78741;BME280;68062;48.726;9.370;2023-12-20T01:08:27;98724.41;;;5.52;100.00
78741;BME280;68062;48.726;9.370;2023-12-20T01:10:55;98728.53;;;5.45;100.00
78741;BME280;68062;48.726;9.370;2023-12-20T01:13:24;98734.28;;;5.35;100.00
78741;BME280;68062;48.726;9.370;2023-12-20T01:15:52;98730.00;;;5.33;100.00
78741;BME280;68062;48.726;9.370;2023-12-20T01:18:20;98728.16;;;5.25;100.00
78741;BME280;68062;48.726;9.370;2023-12-20T01:20:48;98738.25;;;5.19;100.00
78741;BME280;68062;48.726;9.370;2023-12-20T01:23:16;98743.09;;;5.05;100.00
78741;BME280;68062;48.726;9.370;2023-12-20T01:25:44;98741.25;;;4.98;100.00
78741;BME280;68062;48.726;9.370;2023-12-20T01:28:12;98747.94;;;4.94;100.00
78741;BME280;68062;48.726;9.370;2023-12-20T01:30:41;98692.03;;;4.59;100.00
78741;BME280;68062;48.726;9.370;2023-12-20T01:33:10;98746.16;;;4.89;100.00
78741;BME280;68062;48.726;9.370;2023-12-20T01:35:38;98753.59;;;4.79;100.00
78741;BME280;68062;48.726;9.370;2023-12-20T01:38:06;98755.13;;;4.72;100.00
78741;BME280;68062;48.726;9.370;2023-12-20T01:40:33;98747.31;;;4.63;100.00
78741;BME280;68062;48.726;9.370;2023-12-20T01:43:06;98759.63;;;4.45;100.00
78741;BME280;68062;48.726;9.370;2023-12-20T01:45:35;98762.84;;;4.36;100.00
78741;BME280;68062;48.726;9.370;2023-12-20T01:48:06;98767.09;;;4.37;100.00
78741;BME280;68062;48.726;9.370;2023-12-20T01:50:36;98762.97;;;4.42;100.00
78741;BME280;68062;48.726;9.370;2023-12-20T01:53:05;98754.50;;;4.43;100.00
78741;BME280;68062;48.726;9.370;2023-12-20T01:55:38;98753.91;;;4.55;100.00
78741;BME280;68062;48.726;9.370;2023-12-20T01:58:07;98756.16;;;4.41;100.00
78741;BME280;68062;48.726;9.370;2023-12-20T02:00:37;98750.03;;;4.33;100.00
78741;BME280;68062;48.726;9.370;2023-12-20T02:03:06;98762.63;;;4.26;100.00
78741;BME280;68062;48.726;9.370;2023-12-20T02:05:35;98756.78;;;4.32;100.00
78741;BME280;68062;48.726;9.370;2023-12-20T02:08:04;98755.13;;;4.33;100.00
78741;BME280;68062;48.726;9.370;2023-12-20T02:10:34;98749.09;;;4.29;100.00
78741;BME280;68062;48.726;9.370;2023-12-20T02:13:03;98749.81;;;4.23;100.00
78741;BME280;68062;48.726;9.370;2023-12-20T02:15:31;98748.88;;;4.20;100.00
78741;BME280;68062;48.726;9.370;2023-12-20T02:17:59;98740.34;;;4.18;100.00
78741;BME280;68062;48.726;9.370;2023-12-20T02:20:28;98730.13;;;4.16;100.00
78741;BME280;68062;48.726;9.370;2023-12-20T02:22:57;98724.91;;;4.11;100.00
78741;BME280;68062;48.726;9.370;2023-12-20T02:25:25;98742.88;;;4.18;100.00
78741;BME280;68062;48.726;9.370;2023-12-20T02:27:53;98742.13;;;4.22;100.00
78741;BME280;68062;48.726;9.370;2023-12-20T02:30:21;98740.75;;;4.35;100.00
78741;BME280;68062;48.726;9.370;2023-12-20T02:32:50;98735.66;;;4.35;100.00
78741;BME280;68062;48.726;9.370;2023-12-20T02:35:19;98738.09;;;4.30;100.00
78741;BME280;68062;48.726;9.370;2023-12-20T02:37:47;98747.78;;;4.47;100.00
78741;BME280;68062;48.726;9.370;2023-12-20T02:40:16;98741.91;;;4.49;100.00
78741;BME280;68062;48.726;9.370;2023-12-20T02:42:44;98738.75;;;4.61;100.00
78741;BME280;68062;48.726;9.370;2023-12-20T02:45:12;98749.00;;;4.63;100.00
78741;BME280;68062;48.726;9.370;2023-12-20T02:47:40;98749.84;;;4.63;100.00
78741;BME280;68062;48.726;9.370;2023-12-20T02:50:08;98754.13;;;4.64;100.00
78741;BME280;68062;48.726;9.370;2023-12-20T02:52:36;98752.41;;;4.63;100.00
78741;BME280;68062;48.726;9.370;2023-12-20T02:55:05;98755.13;;;4.72;100.00
78741;BME280;68062;48.726;9.370;2023-12-20T02:57:34;98741.44;;;4.67;100.00
78741;BME280;68062;48.726;9.370;2023-12-20T03:00:03;98745.50;;;4.57;100.00
78741;BME280;68062;48.726;9.370;2023-12-20T03:02:31;98752.25;;;4.57;100.00
78741;BME280;68062;48.726;9.370;2023-12-20T03:05:00;98748.75;;;4.52;100.00
78741;BME280;68062;48.726;9.370;2023-12-20T03:07:27;98751.56;;;4.64;100.00
78741;BME280;68062;48.726;9.370;2023-12-20T03:09:56;98753.34;;;4.68;100.00
78741;BME280;68062;48.726;9.370;2023-12-20T03:12:45;98766.91;;;4.67;100.00
78741;BME280;68062;48.726;9.370;2023-12-20T03:15:13;98757.53;;;4.65;100.00
78741;BME280;68062;48.726;9.370;2023-12-20T03:17:41;98756.78;;;4.69;100.00
78741;BME280;68062;48.726;9.370;2023-12-20T03:20:09;98766.09;;;4.68;100.00
78741;BME280;68062;48.726;9.370;2023-12-20T03:22:38;98766.91;;;4.66;100.00
78741;BME280;68062;48.726;9.370;2023-12-20T03:25:06;98770.34;;;4.68;100.00
78741;BME280;68062;48.726;9.370;2023-12-20T03:27:36;98771.25;;;4.71;100.00
78741;BME280;68062;48.726;9.370;2023-12-20T03:30:08;98764.28;;;4.63;100.00
78741;BME280;68062;48.726;9.370;2023-12-20T03:32:37;98774.28;;;4.55;100.00
78741;BME280;68062;48.726;9.370;2023-12-20T03:35:06;98770.84;;;4.53;100.00
78741;BME280;68062;48.726;9.370;2023-12-20T03:37:34;98770.75;;;4.48;100.00
78741;BME280;68062;48.726;9.370;2023-12-20T03:40:03;98770.63;;;4.44;100.00
78741;BME280;68062;48.726;9.370;2023-12-20T03:42:32;98772.97;;;4.34;100.00
78741;BME280;68062;48.726;9.370;2023-12-20T03:44:59;98779.69;;;4.31;100.00
78741;BME280;68062;48.726;9.370;2023-12-20T03:47:29;98748.66;;;4.10;100.00
78741;BME280;68062;48.726;9.370;2023-12-20T03:49:57;98784.66;;;4.26;100.00
78741;BME280;68062;48.726;9.370;2023-12-20T03:52:25;98782.88;;;4.22;100.00
78741;BME280;68062;48.726;9.370;2023-12-20T03:54:53;98786.22;;;4.21;100.00
78741;BME280;68062;48.726;9.370;2023-12-20T03:57:21;98792.97;;;4.19;100.00
78741;BME280;68062;48.726;9.370;2023-12-20T03:59:49;98788.72;;;4.18;100.00
78741;BME280;68062;48.726;9.370;2023-12-20T04:02:17;98796.31;;;4.16;100.00
78741;BME280;68062;48.726;9.370;2023-12-20T04:04:46;98784.41;;;4.15;100.00
78741;BME280;68062;48.726;9.370;2023-12-20T04:07:14;98792.91;;;4.16;100.00
78741;BME280;68062;48.726;9.370;2023-12-20T04:09:42;98787.78;;;4.14;100.00
78741;BME280;68062;48.726;9.370;2023-12-20T04:12:10;98792.88;;;4.14;100.00
78741;BME280;68062;48.726;9.370;2023-12-20T04:14:38;98804.69;;;4.12;100.00
78741;BME280;68062;48.726;9.370;2023-12-20T04:17:06;98804.66;;;4.10;100.00
78741;BME280;68062;48.726;9.370;2023-12-20T04:19:34;98803.06;;;4.16;100.00
78741;BME280;68062;48.726;9.370;2023-12-20T04:22:03;98797.97;;;4.14;100.00
78741;BME280;68062;48.726;9.370;2023-12-20T04:24:31;98793.72;;;4.15;100.00
78741;BME280;68062;48.726;9.370;2023-12-20T04:26:59;98801.34;;;4.15;100.00
78741;BME280;68062;48.726;9.370;2023-12-20T04:29:27;98797.09;;;4.13;100.00
78741;BME280;68062;48.726;9.370;2023-12-20T04:31:55;98805.25;;;4.35;100.00
78741;BME280;68062;48.726;9.370;2023-12-20T04:34:23;98824.66;;;4.30;100.00
78741;BME280;68062;48.726;9.370;2023-12-20T04:36:51;98825.38;;;4.24;100.00
78741;BME280;68062;48.726;9.370;2023-12-20T04:39:20;98821.25;;;4.30;100.00
78741;BME280;68062;48.726;9.370;2023-12-20T04:41:48;98821.06;;;4.22;100.00
78741;BME280;68062;48.726;9.370;2023-12-20T04:44:16;98822.69;;;4.20;100.00
78741;BME280;68062;48.726;9.370;2023-12-20T04:46:45;98826.94;;;4.19;100.00
78741;BME280;68062;48.726;9.370;2023-12-20T04:49:12;98829.41;;;4.16;100.00
78741;BME280;68062;48.726;9.370;2023-12-20T04:51:41;98815.78;;;4.14;100.00
78741;BME280;68062;48.726;9.370;2023-12-20T04:54:08;98833.59;;;4.14;100.00
78741;BME280;68062;48.726;9.370;2023-12-20T04:56:38;98846.47;;;4.20;100.00
78741;BME280;68062;48.726;9.370;2023-12-20T04:59:07;98846.28;;;4.12;100.00
78741;BME280;68062;48.726;9.370;2023-12-20T05:01:35;98849.72;;;4.15;100.00
78741;BME280;68062;48.726;9.370;2023-12-20T05:04:03;98843.72;;;4.12;100.00
78741;BME280;68062;48.726;9.370;2023-12-20T05:06:31;98834.44;;;4.15;100.00
78741;BME280;68062;48.726;9.370;2023-12-20T05:09:00;98838.69;;;4.14;100.00
78741;BME280;68062;48.726;9.370;2023-12-20T05:11:27;98848.06;;;4.17;100.00
78741;BME280;68062;48.726;9.370;2023-12-20T05:13:57;98847.03;;;4.08;100.00
78741;BME280;68062;48.726;9.370;2023-12-20T05:16:24;98850.44;;;4.09;100.00
78741;BME280;68062;48.726;9.370;2023-12-20T05:18:53;98858.06;;;4.09;100.00
78741;BME280;68062;48.726;9.370;2023-12-20T05:21:21;98857.25;;;4.10;100.00
78741;BME280;68062;48.726;9.370;2023-12-20T05:23:49;98848.75;;;4.09;100.00
78741;BME280;68062;48.726;9.370;2023-12-20T05:26:17;98855.56;;;4.10;100.00
78741;BME280;68062;48.726;9.370;2023-12-20T05:28:45;98876.00;;;4.13;100.00
78741;BME280;68062;48.726;9.370;2023-12-20T05:31:14;98876.97;;;4.17;100.00
78741;BME280;68062;48.726;9.370;2023-12-20T05:33:43;98881.91;;;4.12;100.00
78741;BME280;68062;48.726;9.370;2023-12-20T05:36:11;98879.28;;;4.09;100.00
78741;BME280;68062;48.726;9.370;2023-12-20T05:38:40;98881.72;;;4.05;100.00
78741;BME280;68062;48.726;9.370;2023-12-20T05:41:11;98877.41;;;4.02;100.00
78741;BME280;68062;48.726;9.370;2023-12-20T05:43:40;98882.47;;;4.01;100.00
78741;BME280;68062;48.726;9.370;2023-12-20T05:46:09;98888.63;;;4.09;100.00
78741;BME280;68062;48.726;9.370;2023-12-20T05:48:39;98887.66;;;4.05;100.00
78741;BME280;68062;48.726;9.370;2023-12-20T05:51:07;98879.94;;;4.02;100.00
78741;BME280;68062;48.726;9.370;2023-12-20T05:53:38;98890.94;;;4.01;100.00
78741;BME280;68062;48.726;9.370;2023-12-20T05:56:06;98894.41;;;4.03;100.00
78741;BME280;68062;48.726;9.370;2023-12-20T05:58:34;98903.09;;;4.11;100.00
78741;BME280;68062;48.726;9.370;2023-12-20T06:01:03;98906.44;;;4.09;100.00
78741;BME280;68062;48.726;9.370;2023-12-20T06:03:32;98907.59;;;4.22;100.00
78741;BME280;68062;48.726;9.370;2023-12-20T06:06:06;98915.97;;;4.16;100.00
78741;BME280;68062;48.726;9.370;2023-12-20T06:08:42;98912.84;;;4.26;100.00
78741;BME280;68062;48.726;9.370;2023-12-20T06:11:11;98915.16;;;4.19;100.00
78741;BME280;68062;48.726;9.370;2023-12-20T06:13:39;98921.41;;;4.30;100.00
78741;BME280;68062;48.726;9.370;2023-12-20T06:16:07;98917.38;;;4.38;100.00
78741;BME280;68062;48.726;9.370;2023-12-20T06:18:35;98934.34;;;4.38;100.00
78741;BME280;68062;48.726;9.370;2023-12-20T06:21:05;98936.16;;;4.42;100.00
78741;BME280;68062;48.726;9.370;2023-12-20T06:23:35;98932.66;;;4.38;100.00
78741;BME280;68062;48.726;9.370;2023-12-20T06:26:03;98931.81;;;4.39;100.00
78741;BME280;68062;48.726;9.370;2023-12-20T06:28:30;98937.78;;;4.40;100.00
78741;BME280;68062;48.726;9.370;2023-12-20T06:30:59;98927.59;;;4.40;100.00
78741;BME280;68062;48.726;9.370;2023-12-20T06:33:27;98920.66;;;4.34;100.00
78741;BME280;68062;48.726;9.370;2023-12-20T06:35:56;98922.28;;;4.31;100.00
78741;BME280;68062;48.726;9.370;2023-12-20T06:38:25;98930.91;;;4.37;100.00
78741;BME280;68062;48.726;9.370;2023-12-20T06:40:54;98933.13;;;4.23;100.00
78741;BME280;68062;48.726;9.370;2023-12-20T06:43:24;98927.38;;;4.31;100.00
78741;BME280;68062;48.726;9.370;2023-12-20T06:46:12;98938.44;;;4.33;100.00
78741;BME280;68062;48.726;9.370;2023-12-20T06:48:40;98949.56;;;4.36;100.00
78741;BME280;68062;48.726;9.370;2023-12-20T06:51:11;98946.03;;;4.31;100.00
78741;BME280;68062;48.726;9.370;2023-12-20T06:53:41;98939.19;;;4.29;100.00
78741;BME280;68062;48.726;9.370;2023-12-20T06:56:10;98940.03;;;4.29;100.00
78741;BME280;68062;48.726;9.370;2023-12-20T06:58:41;98946.69;;;4.24;100.00
78741;BME280;68062;48.726;9.370;2023-12-20T07:01:11;98949.16;;;4.21;100.00
78741;BME280;68062;48.726;9.370;2023-12-20T07:03:39;98961.22;;;4.26;100.00
78741;BME280;68062;48.726;9.370;2023-12-20T07:06:08;98953.31;;;4.17;100.00
78741;BME280;68062;48.726;9.370;2023-12-20T07:08:36;98966.22;;;4.23;100.00
78741;BME280;68062;48.726;9.370;2023-12-20T07:11:10;98959.41;;;4.22;100.00
78741;BME280;68062;48.726;9.370;2023-12-20T07:13:38;98969.69;;;4.27;100.00
78741;BME280;68062;48.726;9.370;2023-12-20T07:16:06;98968.75;;;4.23;100.00
78741;BME280;68062;48.726;9.370;2023-12-20T07:18:33;98992.66;;;4.29;100.00
78741;BME280;68062;48.726;9.370;2023-12-20T07:21:02;98991.78;;;4.28;100.00
78741;BME280;68062;48.726;9.370;2023-12-20T07:23:30;98989.25;;;4.28;100.00
78741;BME280;68062;48.726;9.370;2023-12-20T07:25:58;98986.84;;;4.33;100.00
78741;BME280;68062;48.726;9.370;2023-12-20T07:28:27;98983.38;;;4.31;100.00
78741;BME280;68062;48.726;9.370;2023-12-20T07:30:56;98975.59;;;4.24;100.00
78741;BME280;68062;48.726;9.370;2023-12-20T07:33:24;98982.34;;;4.24;100.00
78741;BME280;68062;48.726;9.370;2023-12-20T07:35:52;98986.69;;;4.28;100.00
78741;BME280;68062;48.726;9.370;2023-12-20T07:38:21;99002.88;;;4.30;100.00
78741;BME280;68062;48.726;9.370;2023-12-20T07:40:49;99003.63;;;4.26;100.00
78741;BME280;68062;48.726;9.370;2023-12-20T07:43:17;99001.88;;;4.25;100.00
78741;BME280;68062;48.726;9.370;2023-12-20T07:45:46;99001.81;;;4.22;100.00
78741;BME280;68062;48.726;9.370;2023-12-20T07:48:14;98997.59;;;4.22;100.00
78741;BME280;68062;48.726;9.370;2023-12-20T07:50:42;99011.41;;;4.31;100.00
78741;BME280;68062;48.726;9.370;2023-12-20T07:53:10;99015.69;;;4.33;100.00
78741;BME280;68062;48.726;9.370;2023-12-20T07:55:39;99013.38;;;4.41;100.00
78741;BME280;68062;48.726;9.370;2023-12-20T07:58:07;99030.31;;;4.40;100.00
78741;BME280;68062;48.726;9.370;2023-12-20T08:00:34;99021.19;;;4.49;100.00
78741;BME280;68062;48.726;9.370;2023-12-20T08:03:04;99023.63;;;4.44;100.00
78741;BME280;68062;48.726;9.370;2023-12-20T08:05:32;99026.94;;;4.41;100.00
78741;BME280;68062;48.726;9.370;2023-12-20T08:08:00;99027.84;;;4.44;100.00
78741;BME280;68062;48.726;9.370;2023-12-20T08:10:28;99025.38;;;4.45;100.00
78741;BME280;68062;48.726;9.370;2023-12-20T08:12:56;99002.28;;;4.39;100.00
78741;BME280;68062;48.726;9.370;2023-12-20T08:15:25;99028.84;;;4.49;100.00
78741;BME280;68062;48.726;9.370;2023-12-20T08:17:52;99033.13;;;4.50;100.00
78741;BME280;68062;48.726;9.370;2023-12-20T08:20:22;99030.47;;;4.47;100.00
78741;BME280;68062;48.726;9.370;2023-12-20T08:23:05;99035.63;;;4.48;100.00
78741;BME280;68062;48.726;9.370;2023-12-20T08:25:33;99037.28;;;4.46;100.00
78741;BME280;68062;48.726;9.370;2023-12-20T08:28:02;99035.56;;;4.47;100.00
78741;BME280;68062;48.726;9.370;2023-12-20T08:30:31;99045.03;;;4.51;100.00
78741;BME280;68062;48.726;9.370;2023-12-20T08:33:00;99034.84;;;4.51;100.00
78741;BME280;68062;48.726;9.370;2023-12-20T08:35:29;99044.19;;;4.50;100.00
78741;BME280;68062;48.726;9.370;2023-12-20T08:37:58;99050.94;;;4.50;100.00
78741;BME280;68062;48.726;9.370;2023-12-20T08:40:26;99048.47;;;4.53;100.00
78741;BME280;68062;48.726;9.370;2023-12-20T08:42:54;99055.44;;;4.59;100.00
78741;BME280;68062;48.726;9.370;2023-12-20T08:45:23;99052.91;;;4.60;100.00
78741;BME280;68062;48.726;9.370;2023-12-20T08:47:51;99053.75;;;4.59;100.00
78741;BME280;68062;48.726;9.370;2023-12-20T08:50:19;99052.00;;;4.58;100.00
78741;BME280;68062;48.726;9.370;2023-12-20T08:52:48;99057.84;;;4.54;100.00
78741;BME280;68062;48.726;9.370;2023-12-20T08:55:17;99074.84;;;4.55;100.00
78741;BME280;68062;48.726;9.370;2023-12-20T08:57:46;99062.13;;;4.55;100.00
78741;BME280;68062;48.726;9.370;2023-12-20T09:00:15;99054.28;;;4.47;100.00
78741;BME280;68062;48.726;9.370;2023-12-20T09:02:43;99062.56;;;4.40;100.00
78741;BME280;68062;48.726;9.370;2023-12-20T09:05:11;99064.31;;;4.41;100.00
78741;BME280;68062;48.726;9.370;2023-12-20T09:07:39;99067.59;;;4.38;100.00
78741;BME280;68062;48.726;9.370;2023-12-20T09:10:08;99051.16;;;4.27;100.00
78741;BME280;68062;48.726;9.370;2023-12-20T09:12:37;99061.34;;;4.27;100.00
78741;BME280;68062;48.726;9.370;2023-12-20T09:15:08;99061.25;;;4.22;100.00
78741;BME280;68062;48.726;9.370;2023-12-20T09:17:36;99048.97;;;4.09;100.00
78741;BME280;68062;48.726;9.370;2023-12-20T09:20:05;99059.00;;;4.04;100.00
78741;BME280;68062;48.726;9.370;2023-12-20T09:22:35;99065.00;;;4.06;100.00
78741;BME280;68062;48.726;9.370;2023-12-20T09:25:05;99063.53;;;4.13;100.00
78741;BME280;68062;48.726;9.370;2023-12-20T09:27:35;99061.72;;;4.10;100.00
78741;BME280;68062;48.726;9.370;2023-12-20T09:30:04;99066.00;;;4.11;100.00
78741;BME280;68062;48.726;9.370;2023-12-20T09:32:33;99060.88;;;4.10;100.00
78741;BME280;68062;48.726;9.370;2023-12-20T09:35:01;99062.56;;;4.09;100.00
78741;BME280;68062;48.726;9.370;2023-12-20T09:37:30;99068.38;;;4.05;100.00
78741;BME280;68062;48.726;9.370;2023-12-20T09:39:59;99068.44;;;4.07;100.00
78741;BME280;68062;48.726;9.370;2023-12-20T09:42:36;99060.72;;;4.05;100.00
78741;BME280;68062;48.726;9.370;2023-12-20T09:45:08;99073.63;;;4.11;100.00
78741;BME280;68062;48.726;9.370;2023-12-20T09:47:37;99070.38;;;4.16;100.00
78741;BME280;68062;48.726;9.370;2023-12-20T09:50:06;99064.44;;;4.15;100.00
78741;BME280;68062;48.726;9.370;2023-12-20T09:52:36;99065.34;;;4.19;100.00
78741;BME280;68062;48.726;9.370;2023-12-20T09:55:05;99076.41;;;4.19;100.00
78741;BME280;68062;48.726;9.370;2023-12-20T09:57:36;99070.81;;;4.31;100.00
78741;BME280;68062;48.726;9.370;2023-12-20T10:00:06;99068.81;;;4.21;100.00
78741;BME280;68062;48.726;9.370;2023-12-20T10:02:38;99071.63;;;4.30;100.00
78741;BME280;68062;48.726;9.370;2023-12-20T10:05:16;99069.09;;;4.61;100.00
78741;BME280;68062;48.726;9.370;2023-12-20T10:07:46;99073.00;;;5.15;100.00
78741;BME280;68062;48.726;9.370;2023-12-20T10:10:15;99068.41;;;5.73;100.00
78741;BME280;68062;48.726;9.370;2023-12-20T10:13:01;99065.09;;;6.16;97.93
78741;BME280;68062;48.726;9.370;2023-12-20T10:15:29;99058.63;;;6.32;93.06
78741;BME280;68062;48.726;9.370;2023-12-20T10:17:57;99055.13;;;6.27;91.37
78741;BME280;68062;48.726;9.370;2023-12-20T10:20:28;99052.28;;;6.13;90.44
78741;BME280;68062;48.726;9.370;2023-12-20T10:22:57;99068.78;;;6.29;88.64
78741;BME280;68062;48.726;9.370;2023-12-20T10:25:26;99015.56;;;6.06;88.23
78741;BME280;68062;48.726;9.370;2023-12-20T10:28:10;99053.47;;;6.30;85.70
78741;BME280;68062;48.726;9.370;2023-12-20T10:30:40;99049.97;;;6.70;87.71
78741;BME280;68062;48.726;9.370;2023-12-20T10:33:09;99041.19;;;6.55;81.81
78741;BME280;68062;48.726;9.370;2023-12-20T10:35:39;99036.25;;;6.65;81.54
78741;BME280;68062;48.726;9.370;2023-12-20T10:38:12;99040.03;;;6.39;81.27
78741;BME280;68062;48.726;9.370;2023-12-20T10:40:41;99049.59;;;6.07;78.64
78741;BME280;68062;48.726;9.370;2023-12-20T10:43:11;99068.22;;;6.01;80.92
78741;BME280;68062;48.726;9.370;2023-12-20T10:45:41;99029.41;;;6.17;79.54
78741;BME280;68062;48.726;9.370;2023-12-20T10:48:10;99033.34;;;6.44;79.02
78741;BME280;68062;48.726;9.370;2023-12-20T10:50:41;99043.38;;;6.35;79.97
78741;BME280;68062;48.726;9.370;2023-12-20T10:53:09;99053.69;;;6.00;79.21
78741;BME280;68062;48.726;9.370;2023-12-20T10:55:39;99029.56;;;5.87;81.45
78741;BME280;68062;48.726;9.370;2023-12-20T10:58:08;99028.47;;;5.75;83.78
78741;BME280;68062;48.726;9.370;2023-12-20T11:00:40;99029.28;;;5.73;84.38
78741;BME280;68062;48.726;9.370;2023-12-20T11:03:09;99023.91;;;5.60;83.61
78741;BME280;68062;48.726;9.370;2023-12-20T11:05:43;99022.06;;;5.55;85.11
78741;BME280;68062;48.726;9.370;2023-12-20T11:08:20;99018.56;;;5.50;85.21
78741;BME280;68062;48.726;9.370;2023-12-20T11:10:55;99028.91;;;5.56;85.60
78741;BME280;68062;48.726;9.370;2023-12-20T11:13:30;99038.97;;;5.50;85.07
78741;BME280;68062;48.726;9.370;2023-12-20T11:16:00;99028.53;;;5.40;84.47
78741;BME280;68062;48.726;9.370;2023-12-20T11:18:30;99020.06;;;5.40;82.68
78741;BME280;68062;48.726;9.370;2023-12-20T11:21:06;99020.97;;;5.43;80.50
78741;BME280;68062;48.726;9.370;2023-12-20T11:23:35;99026.72;;;5.35;82.61
78741;BME280;68062;48.726;9.370;2023-12-20T11:26:03;99029.41;;;5.41;84.24
78741;BME280;68062;48.726;9.370;2023-12-20T11:28:31;99029.38;;;5.39;84.17
78741;BME280;68062;48.726;9.370;2023-12-20T11:31:01;99025.28;;;5.46;83.26
78741;BME280;68062;48.726;9.370;2023-12-20T11:33:37;99024.34;;;5.42;83.58
78741;BME280;68062;48.726;9.370;2023-12-20T11:36:13;99026.69;;;5.33;85.31
78741;BME280;68062;48.726;9.370;2023-12-20T11:38:54;99035.31;;;5.38;86.32
78741;BME280;68062;48.726;9.370;2023-12-20T11:41:22;99019.91;;;5.34;86.20
78741;BME280;68062;48.726;9.370;2023-12-20T11:43:52;99003.50;;;5.22;85.83
78741;BME280;68062;48.726;9.370;2023-12-20T11:46:22;99025.66;;;5.25;85.05
78741;BME280;68062;48.726;9.370;2023-12-20T11:48:51;99023.13;;;5.25;86.99
78741;BME280;68062;48.726;9.370;2023-12-20T11:51:19;99021.53;;;5.30;87.77
78741;BME280;68062;48.726;9.370;2023-12-20T11:53:51;99017.28;;;5.30;88.00
78741;BME280;68062;48.726;9.370;2023-12-20T11:56:19;99019.84;;;5.30;89.32
78741;BME280;68062;48.726;9.370;2023-12-20T11:58:48;99012.94;;;5.26;86.04
78741;BME280;68062;48.726;9.370;2023-12-20T12:01:19;99026.44;;;5.22;84.48
78741;BME280;68062;48.726;9.370;2023-12-20T12:04:02;99046.16;;;5.29;85.20
78741;BME280;68062;48.726;9.370;2023-12-20T12:06:30;99028.25;;;5.26;85.73
78741;BME280;68062;48.726;9.370;2023-12-20T12:08:59;99025.66;;;5.25;87.22
78741;BME280;68062;48.726;9.370;2023-12-20T12:11:27;99018.03;;;5.26;86.89
78741;BME280;68062;48.726;9.370;2023-12-20T12:13:55;99014.59;;;5.24;84.96
78741;BME280;68062;48.726;9.370;2023-12-20T12:16:23;99013.69;;;5.22;85.03
78741;BME280;68062;48.726;9.370;2023-12-20T12:18:57;99017.06;;;5.21;84.53
78741;BME280;68062;48.726;9.370;2023-12-20T12:21:26;99017.81;;;5.17;85.34
78741;BME280;68062;48.726;9.370;2023-12-20T12:24:06;99013.59;;;5.18;85.58
78741;BME280;68062;48.726;9.370;2023-12-20T12:26:34;99008.66;;;5.24;86.36
78741;BME280;68062;48.726;9.370;2023-12-20T12:29:02;99011.06;;;5.19;84.90
78741;BME280;68062;48.726;9.370;2023-12-20T12:31:30;98976.63;;;5.00;83.96
78741;BME280;68062;48.726;9.370;2023-12-20T12:34:00;99014.63;;;5.26;82.86
78741;BME280;68062;48.726;9.370;2023-12-20T12:36:29;98987.97;;;5.13;83.11
78741;BME280;68062;48.726;9.370;2023-12-20T12:38:58;98981.97;;;5.11;83.64
78741;BME280;68062;48.726;9.370;2023-12-20T12:41:26;98987.06;;;5.11;84.14
78741;BME280;68062;48.726;9.370;2023-12-20T12:43:54;98984.72;;;5.19;81.82
78741;BME280;68062;48.726;9.370;2023-12-20T12:46:26;98986.47;;;5.21;82.85
78741;BME280;68062;48.726;9.370;2023-12-20T12:48:55;98993.41;;;5.27;81.87
78741;BME280;68062;48.726;9.370;2023-12-20T12:51:24;98994.19;;;5.24;82.35
78741;BME280;68062;48.726;9.370;2023-12-20T12:53:52;98984.97;;;5.31;80.86
78741;BME280;68062;48.726;9.370;2023-12-20T12:56:21;98982.63;;;5.39;81.84
78741;BME280;68062;48.726;9.370;2023-12-20T12:58:53;98982.00;;;5.49;83.26
78741;BME280;68062;48.726;9.370;2023-12-20T13:01:21;98971.31;;;5.67;80.70
78741;BME280;68062;48.726;9.370;2023-12-20T13:03:49;98979.41;;;5.87;80.15
78741;BME280;68062;48.726;9.370;2023-12-20T13:06:17;98975.31;;;5.97;79.15
78741;BME280;68062;48.726;9.370;2023-12-20T13:08:47;98983.69;;;5.90;78.73
78741;BME280;68062;48.726;9.370;2023-12-20T13:11:15;98980.81;;;5.74;78.85
78741;BME280;68062;48.726;9.370;2023-12-20T13:13:43;98972.28;;;5.72;77.61